Time;durP1;ratioP1;P1;durP2;ratioP2;P2;SDS_P1;SDS_P2;PMS_P1;PMS_P2;Temp;Humidity;BMP_temperature;BMP_pressure;BME280_temperature;BME280_humidity;BME280_pressure;Samples;Min_cycle;Max_cycle;Signal;HPM_P1;HPM_P2
2023/08/17 00:01:08;;;;;;;3.28;1.70;;;18.90;64.10;;;;;;5015286;28;20077;-76
2023/08/17 00:03:34;;;;;;;3.13;1.65;;;18.90;64.20;;;;;;5015166;28;20052;-76
2023/08/17 00:06:00;;;;;;;5.65;1.70;;;18.90;64.20;;;;;;5015334;28;20042;-76
2023/08/17 00:08:25;;;;;;;5.03;1.67;;;18.90;64.30;;;;;;5015243;28;20045;-76
2023/08/17 00:10:51;;;;;;;4.88;1.75;;;18.90;64.40;;;;;;5015128;28;20084;-76
2023/08/17 00:13:17;;;;;;;2.88;1.50;;;18.90;64.40;;;;;;4998941;28;20125;-76
2023/08/17 00:15:45;;;;;;;2.47;1.40;;;18.90;64.50;;;;;;4998803;28;20111;-76
2023/08/17 00:18:10;;;;;;;4.38;1.40;;;18.90;64.50;;;;;;4998641;28;20073;-76
2023/08/17 00:20:36;;;;;;;3.63;1.38;;;18.90;64.70;;;;;;5015058;28;20053;-76
2023/08/17 00:23:02;;;;;;;5.75;1.92;;;18.90;64.70;;;;;;5015027;28;20060;-76
2023/08/17 00:25:27;;;;;;;5.28;1.67;;;18.90;64.70;;;;;;5014917;28;20053;-76
2023/08/17 00:27:53;;;;;;;6.30;1.98;;;18.90;64.80;;;;;;4998531;28;20042;-76
2023/08/17 00:30:18;;;;;;;4.90;1.80;;;18.90;64.80;;;;;;4998435;28;20060;-76
2023/08/17 00:32:44;;;;;;;5.15;1.80;;;18.80;64.80;;;;;;5014689;28;20170;-76
2023/08/17 00:35:10;;;;;;;4.03;1.33;;;18.80;64.90;;;;;;5014775;28;20125;-76
2023/08/17 00:37:35;;;;;;;3.78;1.90;;;18.80;64.90;;;;;;5014850;28;20042;-76
2023/08/17 00:40:01;;;;;;;5.70;1.75;;;18.80;64.90;;;;;;5014658;28;20044;-74
2023/08/17 00:42:27;;;;;;;3.28;1.10;;;18.80;64.90;;;;;;4998262;28;20065;-75
2023/08/17 00:44:53;;;;;;;4.45;1.40;;;18.80;65.00;;;;;;5014463;28;20034;-74
2023/08/17 00:47:18;;;;;;;3.35;1.30;;;18.80;65.10;;;;;;5014490;28;20049;-74
2023/08/17 00:49:45;;;;;;;3.50;1.10;;;18.80;65.20;;;;;;5014655;28;20038;-74
2023/08/17 00:52:10;;;;;;;3.50;1.67;;;18.70;65.10;;;;;;5014413;28;20130;-74
2023/08/17 00:54:37;;;;;;;3.58;1.55;;;18.70;65.20;;;;;;5013358;28;20124;-74
2023/08/17 00:57:06;;;;;;;3.28;1.73;;;18.70;65.30;;;;;;5014490;28;20468;-74
2023/08/17 00:59:32;;;;;;;3.95;1.65;;;18.70;65.30;;;;;;5014322;28;20041;-74
2023/08/17 01:01:57;;;;;;;2.15;1.33;;;18.70;65.40;;;;;;4997986;28;20401;-74
2023/08/17 01:04:23;;;;;;;5.13;1.42;;;18.70;65.40;;;;;;5014604;28;20045;-76
2023/08/17 01:06:49;;;;;;;3.95;1.70;;;18.70;65.50;;;;;;5014121;28;20548;-75
2023/08/17 01:09:15;;;;;;;6.90;1.88;;;18.70;65.50;;;;;;5014400;28;20503;-75
2023/08/17 01:12:14;;;;;;;3.50;1.60;;;18.60;65.50;;;;;;4997822;28;20129;-75
2023/08/17 01:14:49;;;;;;;4.47;1.30;;;18.60;65.40;;;;;;4981093;28;20057;-75
2023/08/17 01:17:42;;;;;;;4.05;1.52;;;18.60;65.50;;;;;;5013927;28;20045;-75
2023/08/17 01:20:12;;;;;;;3.05;1.42;;;18.60;65.40;;;;;;5014207;28;20397;-75
2023/08/17 01:22:44;;;;;;;3.45;1.20;;;18.60;65.60;;;;;;5013840;28;20042;-75
2023/08/17 01:25:10;;;;;;;4.68;1.60;;;18.60;65.60;;;;;;4997615;28;20048;-75
2023/08/17 01:27:44;;;;;;;3.28;1.58;;;18.60;65.60;;;;;;5013910;28;20038;-75
2023/08/17 01:30:14;;;;;;;5.63;1.60;;;18.60;65.60;;;;;;5013776;28;20034;-75
2023/08/17 01:33:22;;;;;;;2.97;1.35;;;18.50;65.60;;;;;;4997240;28;20505;-75
2023/08/17 01:36:11;;;;;;;4.72;1.40;;;18.50;65.50;;;;;;5000578;28;20048;-75
2023/08/17 01:38:40;;;;;;;4.05;1.40;;;18.50;65.50;;;;;;4997540;28;20077;-75
2023/08/17 01:41:12;;;;;;;4.63;1.65;;;18.50;65.60;;;;;;5013674;28;20069;-75
2023/08/17 01:43:40;;;;;;;4.97;1.40;;;18.50;65.70;;;;;;4997212;28;20092;-75
2023/08/17 01:46:07;;;;;;;5.60;1.60;;;18.50;65.70;;;;;;5013529;28;20045;-75
2023/08/17 01:48:33;;;;;;;3.03;1.42;;;18.50;65.80;;;;;;5013377;28;20045;-75
2023/08/17 01:50:58;;;;;;;2.67;1.52;;;18.50;65.80;;;;;;5013327;28;20057;-75
2023/08/17 01:53:24;;;;;;;7.05;1.92;;;18.40;65.80;;;;;;5013339;28;20038;-75
2023/08/17 01:55:50;;;;;;;5.22;1.25;;;18.40;65.80;;;;;;5013359;28;20042;-75
2023/08/17 01:58:15;;;;;;;4.10;1.77;;;18.40;65.80;;;;;;5012925;28;20445;-75
2023/08/17 02:00:41;;;;;;;2.55;1.30;;;18.40;65.90;;;;;;5013266;28;20041;-75
2023/08/17 02:03:07;;;;;;;3.58;1.10;;;18.40;65.90;;;;;;5013249;28;20046;-75
2023/08/17 02:05:33;;;;;;;3.20;1.17;;;18.40;65.90;;;;;;5012965;28;20042;-75
2023/08/17 02:07:58;;;;;;;2.50;1.02;;;18.40;65.90;;;;;;4980691;28;20050;-75
2023/08/17 02:10:24;;;;;;;3.67;1.40;;;18.40;65.90;;;;;;5013082;28;20041;-75
2023/08/17 02:12:50;;;;;;;4.45;1.50;;;18.40;65.90;;;;;;5012897;28;20485;-75
2023/08/17 02:15:16;;;;;;;2.45;1.15;;;18.40;65.90;;;;;;5013079;28;20121;-75
2023/08/17 02:17:41;;;;;;;2.30;1.17;;;18.40;65.90;;;;;;5012789;28;20135;-75
2023/08/17 02:20:08;;;;;;;3.47;1.50;;;18.40;66.00;;;;;;5012840;28;20100;-75
2023/08/17 02:22:34;;;;;;;4.03;1.60;;;18.40;66.00;;;;;;5012930;28;20426;-75
2023/08/17 02:25:00;;;;;;;3.25;1.20;;;18.30;65.90;;;;;;4996099;28;20065;-75
2023/08/17 02:27:26;;;;;;;3.78;1.60;;;18.30;66.00;;;;;;5012572;28;20038;-75
2023/08/17 02:29:51;;;;;;;3.60;1.75;;;18.30;66.00;;;;;;5012689;28;20088;-75
2023/08/17 02:32:17;;;;;;;6.82;1.55;;;18.30;66.00;;;;;;5012266;28;20056;-75
2023/08/17 02:34:43;;;;;;;2.33;1.15;;;18.20;66.00;;;;;;5012382;28;20052;-75
2023/08/17 02:37:09;;;;;;;3.38;1.30;;;18.20;66.10;;;;;;5012398;28;20401;-75
2023/08/17 02:39:34;;;;;;;3.70;1.65;;;18.20;66.10;;;;;;4996367;28;20034;-75
2023/08/17 02:42:00;;;;;;;3.33;1.40;;;18.20;66.10;;;;;;5012136;28;20045;-75
2023/08/17 02:44:28;;;;;;;4.68;1.60;;;18.20;66.10;;;;;;5012427;28;20046;-75
2023/08/17 02:46:54;;;;;;;5.05;1.33;;;18.20;66.30;;;;;;5012351;28;20077;-75
2023/08/17 02:49:20;;;;;;;4.28;1.33;;;18.20;66.30;;;;;;4995870;28;20144;-75
2023/08/17 02:51:45;;;;;;;2.20;1.25;;;18.20;66.20;;;;;;5012098;28;20129;-75
2023/08/17 02:54:11;;;;;;;4.85;1.67;;;18.20;66.20;;;;;;5012480;28;20129;-75
2023/08/17 02:56:37;;;;;;;3.40;1.30;;;18.20;66.40;;;;;;5012203;28;20092;-75
2023/08/17 02:59:02;;;;;;;4.00;1.92;;;18.10;66.30;;;;;;5012112;28;20049;-75
2023/08/17 03:01:29;;;;;;;4.05;1.23;;;18.10;66.50;;;;;;5012076;28;20083;-75
2023/08/17 03:03:55;;;;;;;2.63;1.48;;;18.00;66.50;;;;;;5012202;28;20076;-75
2023/08/17 03:06:21;;;;;;;3.30;1.70;;;18.00;66.60;;;;;;5012125;28;20073;-75
2023/08/17 03:08:46;;;;;;;2.88;1.48;;;18.00;66.70;;;;;;5012004;28;20125;-75
2023/08/17 03:11:12;;;;;;;3.92;1.30;;;18.00;66.70;;;;;;4979583;28;20069;-75
2023/08/17 03:13:38;;;;;;;2.90;1.42;;;18.00;66.70;;;;;;5011960;28;20042;-75
2023/08/17 03:16:04;;;;;;;4.25;1.50;;;18.00;66.80;;;;;;4995594;28;20129;-75
2023/08/17 03:18:29;;;;;;;3.40;1.40;;;18.00;66.90;;;;;;5011198;28;20057;-75
2023/08/17 03:20:55;;;;;;;4.40;1.70;;;17.90;66.80;;;;;;4995719;28;20077;-75
2023/08/17 03:23:20;;;;;;;4.35;1.77;;;17.90;67.00;;;;;;5011951;28;20045;-75
2023/08/17 03:25:50;;;;;;;5.00;1.55;;;17.90;67.10;;;;;;5012301;28;20073;-75
2023/08/17 03:28:16;;;;;;;2.22;1.10;;;17.90;67.30;;;;;;4996407;28;20381;-75
2023/08/17 03:30:42;;;;;;;4.45;1.80;;;17.80;67.20;;;;;;4979494;28;20046;-75
2023/08/17 03:33:08;;;;;;;5.05;1.80;;;17.80;67.80;;;;;;4995476;28;20054;-75
2023/08/17 03:35:34;;;;;;;3.22;1.55;;;17.80;67.50;;;;;;4979764;28;20081;-75
2023/08/17 03:38:00;;;;;;;2.92;1.52;;;17.80;67.70;;;;;;5011784;28;20073;-75
2023/08/17 03:40:25;;;;;;;2.70;1.10;;;17.70;67.80;;;;;;5011877;28;20046;-75
2023/08/17 03:42:54;;;;;;;4.00;1.85;;;17.60;67.80;;;;;;5011785;28;20045;-75
2023/08/17 03:45:20;;;;;;;3.22;1.50;;;17.60;68.00;;;;;;5011790;28;20088;-75
2023/08/17 03:47:45;;;;;;;3.50;1.60;;;17.60;68.20;;;;;;4995373;28;20033;-75
2023/08/17 03:50:12;;;;;;;5.55;2.10;;;17.60;68.40;;;;;;5011745;28;20370;-75
2023/08/17 03:52:37;;;;;;;3.08;1.42;;;17.60;68.50;;;;;;4995412;28;20149;-75
2023/08/17 03:55:06;;;;;;;4.15;1.40;;;17.50;68.50;;;;;;5011752;28;20089;-75
2023/08/17 03:57:32;;;;;;;6.00;1.90;;;17.50;68.50;;;;;;5011566;28;20125;-75
2023/08/17 03:59:57;;;;;;;4.22;1.88;;;17.50;68.50;;;;;;5011546;28;20069;-75
2023/08/17 04:02:23;;;;;;;5.82;1.40;;;17.50;68.60;;;;;;4979065;28;20038;-75
2023/08/17 04:04:49;;;;;;;4.57;1.90;;;17.50;68.60;;;;;;5011687;28;20053;-75
2023/08/17 04:07:22;;;;;;;4.15;1.70;;;17.50;68.70;;;;;;5011511;28;20049;-75
2023/08/17 04:09:48;;;;;;;3.78;1.98;;;17.50;68.80;;;;;;4995302;28;20041;-75
2023/08/17 04:12:14;;;;;;;4.68;1.70;;;17.50;68.70;;;;;;5011428;28;20038;-75
2023/08/17 04:14:39;;;;;;;4.10;1.35;;;17.50;68.80;;;;;;5011477;28;20046;-75
2023/08/17 04:17:05;;;;;;;3.97;1.50;;;17.50;69.00;;;;;;4995124;28;20065;-75
2023/08/17 04:19:30;;;;;;;5.00;2.03;;;17.50;68.90;;;;;;5011660;28;20099;-75
2023/08/17 04:21:56;;;;;;;4.93;1.85;;;17.50;69.00;;;;;;4995381;28;20053;-75
2023/08/17 04:24:22;;;;;;;3.65;1.55;;;17.50;69.10;;;;;;4978871;28;20037;-75
2023/08/17 04:26:47;;;;;;;3.55;1.58;;;17.50;69.10;;;;;;5011664;28;20041;-75
2023/08/17 04:29:13;;;;;;;4.25;2.05;;;17.50;69.10;;;;;;4979445;28;20080;-75
2023/08/17 04:31:39;;;;;;;3.65;1.52;;;17.60;69.10;;;;;;4998343;28;20148;-75
2023/08/17 04:34:05;;;;;;;3.90;1.75;;;17.50;69.10;;;;;;4982212;28;20078;-75
2023/08/17 04:36:30;;;;;;;3.35;1.55;;;17.60;69.30;;;;;;5014878;28;20081;-75
2023/08/17 04:38:56;;;;;;;4.40;1.67;;;17.60;69.30;;;;;;4998339;28;20042;-75
2023/08/17 04:41:22;;;;;;;4.00;1.67;;;17.60;69.40;;;;;;4998613;28;20042;-75
2023/08/17 04:43:49;;;;;;;2.47;1.27;;;17.50;69.40;;;;;;5014638;28;20482;-75
2023/08/17 04:46:14;;;;;;;3.58;1.52;;;17.60;69.40;;;;;;4998185;28;20048;-75
2023/08/17 04:48:40;;;;;;;3.72;1.30;;;17.50;69.90;;;;;;4982233;28;20041;-75
2023/08/17 04:51:06;;;;;;;5.90;1.73;;;17.50;69.50;;;;;;5014412;28;20536;-75
2023/08/17 04:53:32;;;;;;;4.18;1.50;;;17.50;69.50;;;;;;5014727;28;20045;-75
2023/08/17 04:55:59;;;;;;;3.20;1.33;;;17.50;69.70;;;;;;5014455;28;20473;-75
2023/08/17 04:58:25;;;;;;;3.40;1.70;;;17.50;69.60;;;;;;5014235;28;20042;-75
2023/08/17 05:00:51;;;;;;;3.92;1.58;;;17.50;69.60;;;;;;5014216;28;20044;-75
2023/08/17 05:03:16;;;;;;;3.88;1.75;;;17.50;69.80;;;;;;5014136;28;20041;-75
2023/08/17 05:05:42;;;;;;;2.33;1.30;;;17.50;69.90;;;;;;4997909;28;20041;-75
2023/08/17 05:08:08;;;;;;;4.32;1.50;;;17.50;69.90;;;;;;5013984;28;20044;-75
2023/08/17 05:10:34;;;;;;;6.10;2.22;;;17.60;69.90;;;;;;4997734;28;20081;-75
2023/08/17 05:12:59;;;;;;;4.03;1.63;;;17.60;70.20;;;;;;4997781;28;20045;-75
2023/08/17 05:15:25;;;;;;;3.90;1.70;;;17.50;70.50;;;;;;5014018;28;20046;-75
2023/08/17 05:17:51;;;;;;;5.30;1.95;;;17.60;70.60;;;;;;5013804;28;20034;-75
2023/08/17 05:20:16;;;;;;;4.35;1.73;;;17.60;70.80;;;;;;4997691;28;20034;-75
2023/08/17 05:22:43;;;;;;;4.55;1.50;;;17.60;71.00;;;;;;4997719;28;20452;-75
2023/08/17 05:25:08;;;;;;;5.68;1.70;;;17.50;71.10;;;;;;5013957;28;20536;-75
2023/08/17 05:27:34;;;;;;;5.38;1.50;;;17.60;71.40;;;;;;5013822;28;20040;-75
2023/08/17 05:30:00;;;;;;;5.57;1.73;;;17.50;71.50;;;;;;4997571;28;20042;-75
2023/08/17 05:32:26;;;;;;;5.07;2.08;;;17.50;71.60;;;;;;5013428;28;20060;-75
2023/08/17 05:34:51;;;;;;;4.10;1.50;;;17.50;71.90;;;;;;4997265;28;20129;-75
2023/08/17 05:37:17;;;;;;;3.72;1.50;;;17.50;72.10;;;;;;4997657;28;20083;-75
2023/08/17 05:39:43;;;;;;;3.80;1.75;;;17.50;72.30;;;;;;5013534;28;20045;-75
2023/08/17 05:42:09;;;;;;;6.78;1.92;;;17.50;72.50;;;;;;5012817;28;20045;-75
2023/08/17 05:44:35;;;;;;;7.45;1.90;;;17.50;72.70;;;;;;5013386;28;20037;-75
2023/08/17 05:47:01;;;;;;;4.70;1.70;;;17.50;72.80;;;;;;5013672;28;20400;-75
2023/08/17 05:49:26;;;;;;;6.15;2.00;;;17.50;73.00;;;;;;5013432;28;20104;-75
2023/08/17 05:51:52;;;;;;;4.70;1.63;;;17.50;73.20;;;;;;4996905;28;20068;-75
2023/08/17 05:54:18;;;;;;;3.45;1.50;;;17.50;73.40;;;;;;5013370;28;20034;-75
2023/08/17 05:56:47;;;;;;;4.20;1.35;;;17.50;73.70;;;;;;4996933;28;20398;-75
2023/08/17 05:59:13;;;;;;;4.93;1.75;;;17.50;73.90;;;;;;5013634;28;20092;-75
2023/08/17 06:01:40;;;;;;;5.22;1.60;;;17.50;74.50;;;;;;4996911;28;20042;-75
2023/08/17 06:04:06;;;;;;;4.88;1.83;;;17.60;74.30;;;;;;5013412;28;20389;-75
2023/08/17 06:06:31;;;;;;;3.95;1.50;;;17.70;74.30;;;;;;5013119;28;20045;-75
2023/08/17 06:08:57;;;;;;;5.18;1.40;;;17.80;74.20;;;;;;4996754;28;20456;-75
2023/08/17 06:11:23;;;;;;;4.65;1.83;;;17.90;74.10;;;;;;5013109;28;20038;-75
2023/08/17 06:13:49;;;;;;;5.50;1.40;;;18.00;73.90;;;;;;4997103;28;20088;-75
2023/08/17 06:16:15;;;;;;;8.30;1.60;;;18.20;73.50;;;;;;5012965;28;20119;-75
2023/08/17 06:18:41;;;;;;;5.72;1.55;;;18.40;73.30;;;;;;4980692;28;20089;-75
2023/08/17 06:21:07;;;;;;;3.88;1.23;;;18.60;72.70;;;;;;5013130;28;20041;-75
2023/08/17 06:23:33;;;;;;;5.90;1.60;;;18.80;72.50;;;;;;5012810;28;20078;-75
2023/08/17 06:25:59;;;;;;;4.38;1.55;;;19.00;71.60;;;;;;4996602;28;20080;-75
2023/08/17 06:28:26;;;;;;;5.03;1.50;;;19.10;70.90;;;;;;5012709;28;20073;-75
2023/08/17 06:30:53;;;;;;;6.93;1.77;;;19.30;70.00;;;;;;5012574;28;20049;-75
2023/08/17 06:33:19;;;;;;;5.40;1.67;;;19.40;69.10;;;;;;5012481;28;20061;-75
2023/08/17 06:35:45;;;;;;;5.50;1.50;;;19.50;69.00;;;;;;4996321;28;20045;-75
2023/08/17 06:38:11;;;;;;;4.35;1.23;;;19.60;68.20;;;;;;5012489;28;20050;-75
2023/08/17 06:40:37;;;;;;;3.90;1.60;;;19.70;67.90;;;;;;5012837;28;20101;-75
2023/08/17 06:43:02;;;;;;;5.80;1.35;;;19.70;67.40;;;;;;4996219;28;20045;-75
2023/08/17 06:45:28;;;;;;;5.05;1.33;;;19.70;67.00;;;;;;4979894;28;20053;-75
2023/08/17 06:47:54;;;;;;;5.70;1.25;;;19.70;66.80;;;;;;4996078;28;20096;-75
2023/08/17 06:50:20;;;;;;;6.07;1.80;;;19.70;66.80;;;;;;4996026;28;20048;-75
2023/08/17 06:52:45;;;;;;;6.13;1.75;;;19.70;66.50;;;;;;5012156;28;20482;-75
2023/08/17 06:55:11;;;;;;;7.15;1.60;;;19.60;66.30;;;;;;4996064;28;20141;-75
2023/08/17 06:57:36;;;;;;;4.70;2.53;;;19.50;66.30;;;;;;5012372;28;20041;-75
2023/08/17 07:00:05;;;;;;;6.35;1.90;;;19.50;66.70;;;;;;4995692;28;20153;-75
2023/08/17 07:02:31;;;;;;;3.58;1.30;;;19.40;66.80;;;;;;4996575;28;20125;-75
2023/08/17 07:04:57;;;;;;;4.93;2.08;;;19.40;67.10;;;;;;4979766;28;20134;-75
2023/08/17 07:07:22;;;;;;;5.28;2.00;;;19.30;67.20;;;;;;5012208;28;20175;-75
2023/08/17 07:09:48;;;;;;;4.70;1.83;;;19.30;67.40;;;;;;5012064;28;20045;-75
2023/08/17 07:12:14;;;;;;;3.47;1.83;;;19.30;67.50;;;;;;4995718;28;20042;-75
2023/08/17 07:14:39;;;;;;;4.00;1.38;;;19.30;67.50;;;;;;5012049;28;20038;-75
2023/08/17 07:17:05;;;;;;;4.28;1.60;;;19.20;67.60;;;;;;5011955;28;20041;-75
2023/08/17 07:19:30;;;;;;;4.00;1.65;;;19.20;67.90;;;;;;5012066;28;20045;-75
2023/08/17 07:21:56;;;;;;;4.20;1.45;;;19.20;68.00;;;;;;4995961;28;20038;-75
2023/08/17 07:24:22;;;;;;;5.93;1.70;;;19.10;68.10;;;;;;4995761;28;20128;-75
2023/08/17 07:26:47;;;;;;;2.97;1.33;;;19.10;68.30;;;;;;4995724;28;20057;-75
2023/08/17 07:29:13;;;;;;;6.20;1.58;;;19.00;68.40;;;;;;4995717;28;20124;-75
2023/08/17 07:31:39;;;;;;;6.20;1.67;;;19.10;68.50;;;;;;4997360;28;20050;-75
2023/08/17 07:34:08;;;;;;;3.42;1.63;;;19.10;69.20;;;;;;4982433;28;20518;-75
2023/08/17 07:36:34;;;;;;;4.20;1.45;;;19.10;69.60;;;;;;5015258;28;20049;-75
2023/08/17 07:38:59;;;;;;;6.95;2.10;;;19.20;69.70;;;;;;4998777;28;20048;-75
2023/08/17 07:41:26;;;;;;;3.58;1.30;;;19.30;69.40;;;;;;5015098;28;20045;-75
2023/08/17 07:43:52;;;;;;;4.38;1.27;;;19.40;68.80;;;;;;4998680;28;20081;-75
2023/08/17 07:46:17;;;;;;;7.05;1.73;;;19.50;68.50;;;;;;4998797;28;20076;-75
2023/08/17 07:48:43;;;;;;;3.63;1.30;;;19.60;68.90;;;;;;4982787;28;20045;-75
2023/08/17 07:51:09;;;;;;;6.03;1.50;;;19.80;68.90;;;;;;4998713;28;20477;-75
2023/08/17 07:53:34;;;;;;;5.03;1.20;;;20.00;68.30;;;;;;5015270;28;20045;-75
2023/08/17 07:56:00;;;;;;;4.57;1.45;;;20.10;66.90;;;;;;4982494;28;20397;-75
2023/08/17 07:58:26;;;;;;;3.45;1.52;;;20.20;66.50;;;;;;4998691;28;20376;-76
2023/08/17 08:00:51;;;;;;;4.80;1.23;;;20.30;65.80;;;;;;5015091;28;20044;-75
2023/08/17 08:03:17;;;;;;;6.45;1.67;;;20.30;65.10;;;;;;5014967;28;20485;-75
2023/08/17 08:05:42;;;;;;;7.53;1.88;;;20.30;64.90;;;;;;5017946;28;20124;-76
2023/08/17 08:08:08;;;;;;;5.25;1.67;;;20.30;64.60;;;;;;5002290;28;20049;-75
2023/08/17 08:10:34;;;;;;;1.73;0.90;;;20.30;64.40;;;;;;5002111;28;20053;-76
2023/08/17 08:13:00;;;;;;;4.68;1.42;;;20.30;64.20;;;;;;5002431;28;20045;-75
2023/08/17 08:15:25;;;;;;;4.93;0.85;;;20.30;63.60;;;;;;5018441;28;20481;-75
2023/08/17 08:17:51;;;;;;;5.45;1.20;;;20.30;63.90;;;;;;5018341;28;20037;-75
2023/08/17 08:20:17;;;;;;;3.38;1.30;;;20.30;64.20;;;;;;5001962;28;20064;-75
2023/08/17 08:22:42;;;;;;;3.53;1.15;;;20.20;63.80;;;;;;5018287;28;20037;-75
2023/08/17 08:25:08;;;;;;;2.45;1.00;;;20.20;63.40;;;;;;5018255;28;20067;-75
2023/08/17 08:27:34;;;;;;;3.45;1.27;;;20.30;63.00;;;;;;4985865;28;20095;-75
2023/08/17 08:29:59;;;;;;;4.80;1.35;;;20.20;62.80;;;;;;5001829;28;20053;-75
2023/08/17 08:32:25;;;;;;;4.70;1.10;;;20.30;62.90;;;;;;5016730;28;20147;-75
2023/08/17 08:34:51;;;;;;;3.38;1.15;;;20.30;62.90;;;;;;5018060;28;20128;-75
2023/08/17 08:37:16;;;;;;;3.67;1.13;;;20.30;62.90;;;;;;5018020;28;20390;-75
2023/08/17 08:39:53;;;;;;;4.75;1.25;;;20.30;62.30;;;;;;5001685;28;20124;-75
2023/08/17 08:42:19;;;;;;;2.83;1.10;;;20.40;62.30;;;;;;5002208;28;20049;-75
2023/08/17 08:44:45;;;;;;;3.70;1.48;;;20.40;62.80;;;;;;5017789;28;20045;-75
2023/08/17 08:47:12;;;;;;;5.40;1.50;;;20.40;63.20;;;;;;5017756;28;20095;-75
2023/08/17 08:49:50;;;;;;;5.00;1.92;;;20.40;62.90;;;;;;5001393;28;20080;-75
2023/08/17 08:52:22;;;;;;;2.28;0.90;;;20.50;62.90;;;;;;5017505;28;20041;-75
2023/08/17 08:54:50;;;;;;;4.32;1.13;;;20.60;63.00;;;;;;5001224;28;20481;-75
2023/08/17 08:57:17;;;;;;;4.65;1.02;;;20.70;63.10;;;;;;5001243;28;20042;-75
2023/08/17 08:59:45;;;;;;;6.75;1.80;;;20.80;62.70;;;;;;5000849;28;20039;-75
2023/08/17 09:02:16;;;;;;;4.65;1.40;;;20.90;62.00;;;;;;5017623;28;20128;-75
2023/08/17 09:04:44;;;;;;;5.15;1.60;;;20.90;61.60;;;;;;5001311;28;20102;-75
2023/08/17 09:07:13;;;;;;;5.80;1.25;;;21.00;61.70;;;;;;5017600;28;20041;-75
2023/08/17 09:09:39;;;;;;;4.05;1.00;;;21.00;61.00;;;;;;5017612;28;20512;-75
2023/08/17 09:12:09;;;;;;;2.55;0.80;;;21.00;61.00;;;;;;5017308;28;20084;-75
2023/08/17 09:14:35;;;;;;;4.38;1.30;;;21.00;60.90;;;;;;5017236;28;20045;-75
2023/08/17 09:17:00;;;;;;;3.20;0.93;;;21.00;61.00;;;;;;4999658;28;20080;-75
2023/08/17 09:19:27;;;;;;;4.35;1.50;;;21.10;61.00;;;;;;5017378;28;20454;-75
2023/08/17 09:21:53;;;;;;;4.80;1.50;;;21.10;61.00;;;;;;5017212;28;20055;-75
2023/08/17 09:24:19;;;;;;;4.50;1.10;;;21.10;60.70;;;;;;5017454;28;20132;-75
2023/08/17 09:26:45;;;;;;;3.50;1.10;;;21.10;60.80;;;;;;5017099;28;20045;-75
2023/08/17 09:29:18;;;;;;;4.63;0.98;;;21.20;60.70;;;;;;4984471;28;20041;-76
2023/08/17 09:31:44;;;;;;;3.72;0.98;;;21.20;61.00;;;;;;5019606;28;20045;-75
2023/08/17 09:34:10;;;;;;;3.85;1.17;;;21.30;61.10;;;;;;5016712;28;20049;-76
2023/08/17 09:36:37;;;;;;;3.67;1.23;;;21.40;61.40;;;;;;5000960;28;20037;-76
2023/08/17 09:39:03;;;;;;;4.90;1.10;;;21.50;61.00;;;;;;5033378;28;20561;-76
2023/08/17 09:41:29;;;;;;;3.97;1.20;;;21.60;60.40;;;;;;5033823;28;20053;-76
2023/08/17 09:43:55;;;;;;;5.75;1.33;;;21.60;59.90;;;;;;5016819;28;20396;-76
2023/08/17 09:46:21;;;;;;;3.67;1.17;;;21.70;59.90;;;;;;5033229;28;20052;-76
2023/08/17 09:48:47;;;;;;;4.25;1.05;;;21.70;59.80;;;;;;5017156;28;20414;-75
2023/08/17 09:51:17;;;;;;;4.85;1.30;;;21.70;59.90;;;;;;5016574;28;20048;-75
2023/08/17 09:53:43;;;;;;;4.80;1.10;;;21.70;59.40;;;;;;5033218;28;20041;-74
2023/08/17 09:56:10;;;;;;;3.53;1.10;;;21.70;59.50;;;;;;5016607;28;20087;-75
2023/08/17 09:58:38;;;;;;;2.85;1.05;;;21.70;60.00;;;;;;5033232;28;20041;-75
2023/08/17 10:01:07;;;;;;;3.08;1.00;;;21.60;59.70;;;;;;5033076;28;20431;-74
2023/08/17 10:03:37;;;;;;;2.40;1.05;;;21.60;60.00;;;;;;5016854;28;20037;-75
2023/08/17 10:06:09;;;;;;;2.30;0.90;;;21.60;60.40;;;;;;5033017;28;20045;-73
2023/08/17 10:08:48;;;;;;;3.05;1.00;;;21.60;60.30;;;;;;5030625;28;20501;-73
2023/08/17 10:11:18;;;;;;;4.60;1.20;;;21.60;60.00;;;;;;5013060;28;20449;-73
2023/08/17 10:13:55;;;;;;;4.03;1.00;;;21.60;60.20;;;;;;5021455;28;20104;-73
2023/08/17 10:16:26;;;;;;;3.03;1.10;;;21.60;60.30;;;;;;5015990;28;20044;-73
2023/08/17 10:18:58;;;;;;;3.92;1.15;;;21.60;60.60;;;;;;5032774;28;20397;-73
2023/08/17 10:21:53;;;;;;;2.78;1.13;;;21.60;60.80;;;;;;5032647;28;20068;-72
2023/08/17 10:24:19;;;;;;;3.38;1.08;;;21.60;59.90;;;;;;5030594;28;20054;-72
2023/08/17 10:26:46;;;;;;;5.55;1.27;;;21.60;60.40;;;;;;5031923;28;20092;-73
2023/08/17 10:29:12;;;;;;;3.58;1.55;;;21.60;60.50;;;;;;5032214;28;20041;-73
2023/08/17 10:31:38;;;;;;;3.42;1.15;;;21.60;60.90;;;;;;5032173;28;20084;-73
2023/08/17 10:34:04;;;;;;;4.55;1.10;;;21.60;61.20;;;;;;5032119;28;20107;-73
2023/08/17 10:36:32;;;;;;;4.55;1.50;;;21.70;61.30;;;;;;5031912;28;20045;-73
2023/08/17 10:39:28;;;;;;;6.63;1.90;;;21.70;61.40;;;;;;5031928;28;20063;-73
2023/08/17 10:41:54;;;;;;;3.65;1.35;;;21.80;60.60;;;;;;5028528;28;20053;-73
2023/08/17 10:44:46;;;;;;;4.53;1.70;;;21.80;60.20;;;;;;5032040;28;20041;-72
2023/08/17 10:47:32;;;;;;;4.60;1.20;;;21.80;60.30;;;;;;5015541;28;20445;-73
2023/08/17 10:50:24;;;;;;;3.22;1.40;;;21.90;60.30;;;;;;4996983;28;20069;-73
2023/08/17 10:52:52;;;;;;;3.15;1.00;;;21.90;60.70;;;;;;5015144;28;20054;-72
2023/08/17 10:55:41;;;;;;;5.18;1.80;;;22.00;61.10;;;;;;4997094;28;20145;-73
2023/08/17 10:58:08;;;;;;;4.88;1.45;;;22.10;60.20;;;;;;5018726;28;20049;-73
2023/08/17 11:00:38;;;;;;;3.53;1.58;;;22.10;60.30;;;;;;5031919;28;20041;-73
2023/08/17 11:03:06;;;;;;;3.80;1.20;;;22.10;59.90;;;;;;5015367;28;20488;-73
2023/08/17 11:05:49;;;;;;;4.20;1.10;;;22.10;60.20;;;;;;5031775;28;20048;-73
2023/08/17 11:08:31;;;;;;;1.90;1.00;;;22.10;60.40;;;;;;5031817;28;20049;-73
2023/08/17 11:11:06;;;;;;;3.22;1.10;;;22.20;61.10;;;;;;5013425;28;20308;-73
2023/08/17 11:13:34;;;;;;;4.82;1.77;;;22.20;60.80;;;;;;5011881;28;20045;-73
2023/08/17 11:16:00;;;;;;;5.03;1.67;;;22.20;60.30;;;;;;5011954;28;20076;-73
2023/08/17 11:18:26;;;;;;;3.47;1.30;;;22.20;59.70;;;;;;5011583;28;20046;-73
2023/08/17 11:20:53;;;;;;;7.00;1.30;;;22.20;60.20;;;;;;5014353;28;20049;-73
2023/08/17 11:23:19;;;;;;;2.90;1.30;;;22.30;61.20;;;;;;5014957;28;20091;-73
2023/08/17 11:25:45;;;;;;;4.43;1.33;;;22.30;60.90;;;;;;5031509;28;20037;-73
2023/08/17 11:28:10;;;;;;;3.85;1.50;;;22.40;60.90;;;;;;5031762;28;20052;-73
2023/08/17 11:30:38;;;;;;;4.28;1.30;;;22.40;60.80;;;;;;5031557;28;20045;-73
2023/08/17 11:33:05;;;;;;;5.57;1.42;;;22.50;61.10;;;;;;5031309;28;20107;-73
2023/08/17 11:35:31;;;;;;;5.30;1.42;;;22.50;60.90;;;;;;5015073;28;20038;-73
2023/08/17 11:37:57;;;;;;;2.28;1.17;;;22.60;60.80;;;;;;5031326;28;20040;-73
2023/08/17 11:40:24;;;;;;;3.85;1.73;;;22.70;60.80;;;;;;5018094;28;20040;-73
2023/08/17 11:42:50;;;;;;;3.75;1.55;;;22.70;59.70;;;;;;5035716;28;20045;-73
2023/08/17 11:45:16;;;;;;;2.58;1.20;;;22.80;60.00;;;;;;5018962;28;20121;-73
2023/08/17 11:47:43;;;;;;;3.20;1.27;;;22.80;60.30;;;;;;5035326;28;20167;-73
2023/08/17 11:50:10;;;;;;;4.60;1.58;;;22.80;59.70;;;;;;5019191;28;20041;-73
2023/08/17 11:52:36;;;;;;;4.72;1.73;;;22.80;59.20;;;;;;5034899;28;20045;-73
2023/08/17 11:55:06;;;;;;;6.65;1.40;;;22.80;59.10;;;;;;5018590;28;20037;-74
2023/08/17 11:57:33;;;;;;;3.70;1.40;;;22.80;59.30;;;;;;5019048;28;20042;-73
2023/08/17 12:00:00;;;;;;;2.75;1.23;;;22.80;59.50;;;;;;5018474;28;20478;-73
2023/08/17 12:02:30;;;;;;;4.10;1.30;;;22.80;59.60;;;;;;5035123;28;20041;-73
2023/08/17 12:04:56;;;;;;;4.25;1.60;;;22.80;60.20;;;;;;5018284;28;20046;-73
2023/08/17 12:07:25;;;;;;;2.83;1.65;;;22.80;59.90;;;;;;5034830;28;20043;-73
2023/08/17 12:09:52;;;;;;;3.55;1.58;;;22.80;59.70;;;;;;5018402;28;20049;-73
2023/08/17 12:12:19;;;;;;;4.43;1.58;;;22.70;59.50;;;;;;5018234;28;20080;-73
2023/08/17 12:14:47;;;;;;;4.05;1.90;;;22.70;60.20;;;;;;5026904;28;20045;-73
2023/08/17 12:17:20;;;;;;;5.00;2.08;;;22.70;60.20;;;;;;5004840;28;20045;-73
2023/08/17 12:19:50;;;;;;;4.07;1.98;;;22.60;60.60;;;;;;5023581;28;20045;-73
2023/08/17 12:22:17;;;;;;;3.83;2.03;;;22.60;60.60;;;;;;4998212;28;20041;-73
2023/08/17 12:24:43;;;;;;;5.20;1.95;;;22.60;60.60;;;;;;5018426;28;20404;-73
2023/08/17 12:27:09;;;;;;;3.47;1.77;;;22.60;60.40;;;;;;5034503;28;20053;-73
2023/08/17 12:29:49;;;;;;;2.60;1.60;;;22.60;60.10;;;;;;5034738;28;20049;-73
2023/08/17 12:32:16;;;;;;;3.85;1.80;;;22.60;60.20;;;;;;5033988;28;20090;-73
2023/08/17 12:34:42;;;;;;;5.72;2.45;;;22.60;60.40;;;;;;5017046;28;20072;-73
2023/08/17 12:37:09;;;;;;;4.68;1.90;;;22.60;60.60;;;;;;5038069;28;20068;-73
2023/08/17 12:39:36;;;;;;;3.83;2.67;;;22.60;60.80;;;;;;5037772;28;20124;-73
2023/08/17 12:42:02;;;;;;;3.45;2.30;;;22.60;61.00;;;;;;5037665;28;20048;-73
2023/08/17 12:44:28;;;;;;;5.10;2.40;;;22.60;60.70;;;;;;5037569;28;20473;-73
2023/08/17 12:46:53;;;;;;;4.85;2.40;;;22.60;60.90;;;;;;5037749;28;20072;-73
2023/08/17 12:49:19;;;;;;;3.08;1.73;;;22.50;61.70;;;;;;5036981;28;20053;-73